Time;durP1;ratioP1;P1;durP2;ratioP2;P2;SDS_P1;SDS_P2;PMS_P1;PMS_P2;Temp;Humidity;BMP_temperature;BMP_pressure;BME280_temperature;BME280_humidity;BME280_pressure;Samples;Min_cycle;Max_cycle;Signal;HPM_P1;HPM_P2
2023/04/29 00:00:42;;;;;;;16.60;8.80;;;12.40;99.90;;;;;;5042169;28;20305;-57
2023/04/29 00:03:08;;;;;;;12.80;8.80;;;12.40;99.90;;;;;;5041572;28;20520;-57
2023/04/29 00:05:34;;;;;;;12.77;8.77;;;12.40;99.90;;;;;;5036841;28;20593;-56
2023/04/29 00:08:00;;;;;;;17.43;8.40;;;12.40;99.90;;;;;;5036831;28;20247;-57
2023/04/29 00:10:25;;;;;;;15.90;9.17;;;12.40;99.90;;;;;;5045498;28;20426;-57
2023/04/29 00:12:51;;;;;;;12.93;9.00;;;12.40;99.90;;;;;;5042806;28;20266;-58
2023/04/29 00:15:17;;;;;;;15.23;9.00;;;12.40;99.90;;;;;;5043977;28;20260;-58
2023/04/29 00:17:44;;;;;;;14.20;9.57;;;12.40;99.90;;;;;;5039851;28;20550;-58
2023/04/29 00:20:11;;;;;;;11.57;7.27;;;12.40;99.90;;;;;;5035429;28;20469;-58
2023/04/29 00:22:37;;;;;;;12.03;8.33;;;12.40;99.90;;;;;;5039401;28;20787;-60
2023/04/29 00:25:03;;;;;;;13.87;7.70;;;12.40;99.90;;;;;;5038891;28;20437;-57
2023/04/29 00:27:29;;;;;;;16.83;7.73;;;12.40;99.90;;;;;;5032639;28;20775;-57
2023/04/29 00:29:56;;;;;;;11.20;7.30;;;12.40;99.90;;;;;;5030540;28;20524;-57
2023/04/29 00:32:21;;;;;;;11.30;8.13;;;12.40;99.90;;;;;;5031594;28;20226;-56
2023/04/29 00:34:47;;;;;;;16.00;8.93;;;12.40;99.90;;;;;;5030831;28;21160;-58
2023/04/29 00:37:13;;;;;;;13.23;7.73;;;12.40;99.90;;;;;;5032499;28;20608;-58
2023/04/29 00:39:38;;;;;;;12.87;7.93;;;12.40;99.90;;;;;;5031265;28;20199;-57
2023/04/29 00:42:04;;;;;;;8.90;6.80;;;12.40;99.90;;;;;;5026882;28;20202;-57
2023/04/29 00:44:30;;;;;;;10.13;6.83;;;12.40;99.90;;;;;;5032399;28;20167;-57
2023/04/29 00:46:56;;;;;;;7.47;5.90;;;12.40;99.90;;;;;;5033629;28;20222;-58
2023/04/29 00:49:22;;;;;;;10.53;6.57;;;12.40;99.90;;;;;;5036606;28;20183;-59
2023/04/29 00:51:48;;;;;;;8.87;6.03;;;12.30;99.90;;;;;;5028684;28;20842;-57
2023/04/29 00:54:14;;;;;;;12.50;7.37;;;12.30;99.90;;;;;;5028446;28;20236;-58
2023/04/29 00:56:42;;;;;;;8.70;6.33;;;12.30;99.90;;;;;;5037630;28;20456;-57
2023/04/29 00:59:11;;;;;;;13.90;6.33;;;12.20;99.90;;;;;;5034209;28;20900;-57
2023/04/29 01:01:37;;;;;;;7.27;5.90;;;12.20;99.90;;;;;;5030803;28;20942;-57
2023/04/29 01:04:04;;;;;;;9.27;6.90;;;12.20;99.90;;;;;;5032039;28;20559;-58
2023/04/29 01:06:49;;;;;;;11.03;6.60;;;12.20;99.90;;;;;;5035628;28;21012;-57
2023/04/29 01:09:39;;;;;;;8.80;5.77;;;12.20;99.90;;;;;;5031235;28;20945;-57
2023/04/29 01:12:11;;;;;;;8.23;5.70;;;12.20;99.90;;;;;;5032969;28;20515;-58
2023/04/29 01:14:39;;;;;;;7.60;5.60;;;12.20;99.90;;;;;;5035111;28;20440;-59
2023/04/29 01:17:08;;;;;;;7.43;5.63;;;12.20;99.90;;;;;;5031680;28;20533;-57
2023/04/29 01:19:40;;;;;;;7.00;5.67;;;12.20;99.90;;;;;;5033640;28;20476;-57
2023/04/29 01:22:06;;;;;;;6.80;5.30;;;12.20;99.90;;;;;;5031562;28;20459;-57
2023/04/29 01:24:32;;;;;;;6.60;5.30;;;12.20;99.90;;;;;;5046171;28;20460;-58
2023/04/29 01:27:09;;;;;;;6.53;5.27;;;12.20;99.90;;;;;;5040598;28;20215;-59
2023/04/29 01:29:56;;;;;;;9.03;5.60;;;12.10;99.90;;;;;;5031506;28;20429;-59
2023/04/29 01:32:46;;;;;;;10.83;6.00;;;12.10;99.90;;;;;;5034427;28;20442;-57
2023/04/29 01:35:59;;;;;;;6.60;5.53;;;12.10;99.90;;;;;;5032924;28;20440;-57
2023/04/29 01:38:31;;;;;;;9.23;4.87;;;12.10;99.90;;;;;;5005394;28;20446;-57
2023/04/29 01:41:28;;;;;;;6.90;4.20;;;12.10;99.90;;;;;;5035965;28;20509;-59
2023/04/29 01:43:57;;;;;;;6.43;3.87;;;12.10;99.90;;;;;;5016449;28;20486;-56
2023/04/29 01:46:22;;;;;;;11.20;3.50;;;12.10;99.90;;;;;;5034717;28;20469;-58
2023/04/29 01:48:51;;;;;;;4.30;3.63;;;12.00;99.90;;;;;;5051071;28;20879;-57
2023/04/29 01:51:16;;;;;;;10.00;5.57;;;12.00;99.90;;;;;;5049287;28;20202;-58
2023/04/29 01:53:42;;;;;;;19.57;6.10;;;12.00;99.90;;;;;;5037320;28;20809;-57
2023/04/29 01:56:08;;;;;;;8.53;5.43;;;12.00;99.90;;;;;;5036260;28;20253;-57
2023/04/29 01:58:34;;;;;;;45.43;6.30;;;12.00;99.90;;;;;;5043154;28;20177;-57
2023/04/29 02:00:59;;;;;;;24.93;5.30;;;12.00;99.90;;;;;;5035625;28;20609;-58
2023/04/29 02:03:25;;;;;;;5.90;4.93;;;12.00;99.90;;;;;;5038300;28;20632;-57
2023/04/29 02:05:51;;;;;;;8.27;5.43;;;12.00;99.90;;;;;;5041078;28;20278;-58
2023/04/29 02:08:17;;;;;;;7.30;4.97;;;11.90;99.90;;;;;;5039482;28;20179;-57
2023/04/29 02:10:54;;;;;;;6.60;4.87;;;11.90;99.90;;;;;;5039501;28;20176;-57
2023/04/29 02:13:20;;;;;;;6.40;4.70;;;11.90;99.90;;;;;;5041862;28;20748;-57
2023/04/29 02:15:46;;;;;;;13.00;4.50;;;11.90;99.90;;;;;;5039181;28;20554;-58
2023/04/29 02:18:11;;;;;;;12.43;5.03;;;11.90;99.90;;;;;;5040998;28;20179;-57
2023/04/29 02:20:37;;;;;;;5.73;4.40;;;11.80;99.90;;;;;;5036933;28;20229;-57
2023/04/29 02:23:02;;;;;;;6.13;4.07;;;11.80;99.90;;;;;;5030678;28;20263;-57
2023/04/29 02:25:28;;;;;;;13.83;4.77;;;11.80;99.90;;;;;;5034297;28;20786;-57
2023/04/29 02:27:53;;;;;;;4.73;3.67;;;11.80;99.90;;;;;;5033686;28;20244;-58
2023/04/29 02:30:19;;;;;;;4.10;3.27;;;11.80;99.90;;;;;;5032866;28;20735;-57
2023/04/29 02:32:44;;;;;;;5.97;3.20;;;11.70;99.90;;;;;;5028492;28;20553;-57
2023/04/29 02:35:11;;;;;;;10.40;2.97;;;11.70;99.90;;;;;;5034442;28;20170;-56
2023/04/29 02:37:37;;;;;;;8.40;3.70;;;11.60;99.90;;;;;;5037041;28;20184;-57
2023/04/29 02:40:03;;;;;;;13.37;3.93;;;11.60;99.90;;;;;;5044123;28;20524;-58
2023/04/29 02:42:28;;;;;;;4.87;4.00;;;11.50;99.90;;;;;;5032598;28;20167;-58
2023/04/29 02:44:54;;;;;;;5.77;4.03;;;11.50;99.90;;;;;;5034211;28;20179;-57
2023/04/29 02:47:19;;;;;;;4.47;3.90;;;11.50;99.90;;;;;;5030372;28;20203;-58
2023/04/29 02:49:45;;;;;;;3.50;3.20;;;11.60;99.90;;;;;;5028528;28;20186;-58
2023/04/29 02:52:11;;;;;;;3.90;3.37;;;11.60;99.90;;;;;;5029591;28;20269;-57
2023/04/29 02:54:37;;;;;;;19.47;4.47;;;11.60;99.90;;;;;;5037640;28;20306;-57
2023/04/29 02:57:03;;;;;;;18.33;4.60;;;11.60;99.90;;;;;;5028750;28;20464;-57
2023/04/29 02:59:28;;;;;;;4.30;3.90;;;11.60;99.90;;;;;;5029179;28;20205;-58
2023/04/29 03:01:54;;;;;;;7.00;3.83;;;11.60;99.90;;;;;;5028498;28;20218;-55
2023/04/29 03:04:20;;;;;;;10.60;4.60;;;11.60;99.90;;;;;;5025730;28;20258;-56
2023/04/29 03:06:46;;;;;;;6.90;3.37;;;11.60;99.90;;;;;;5029539;28;20297;-56
2023/04/29 03:09:13;;;;;;;9.70;3.20;;;11.60;99.90;;;;;;5033482;28;20556;-56
2023/04/29 03:11:38;;;;;;;4.73;3.33;;;11.50;99.90;;;;;;5027901;28;20457;-56
2023/04/29 03:14:04;;;;;;;4.13;3.40;;;11.50;99.90;;;;;;5032599;28;20478;-57
2023/04/29 03:16:30;;;;;;;5.17;3.63;;;11.50;99.90;;;;;;5026488;28;20278;-56
2023/04/29 03:18:56;;;;;;;9.60;4.10;;;11.50;99.90;;;;;;5032857;28;20196;-56
2023/04/29 03:21:24;;;;;;;15.67;3.80;;;11.50;99.90;;;;;;5029132;28;20421;-56
2023/04/29 03:23:49;;;;;;;9.53;4.20;;;11.50;99.90;;;;;;5029208;28;20423;-57
2023/04/29 03:26:15;;;;;;;31.90;4.13;;;11.50;99.90;;;;;;5033349;28;20454;-56
2023/04/29 03:28:41;;;;;;;7.70;3.50;;;11.40;99.90;;;;;;5031901;28;20547;-56
2023/04/29 03:31:07;;;;;;;6.53;3.30;;;11.40;99.90;;;;;;5026301;28;20435;-58
2023/04/29 03:33:33;;;;;;;24.63;4.10;;;11.40;99.90;;;;;;5027079;28;20182;-57
2023/04/29 03:35:58;;;;;;;16.70;3.63;;;11.40;99.90;;;;;;5027208;28;20287;-57
2023/04/29 03:38:24;;;;;;;4.63;3.00;;;11.40;99.90;;;;;;5032636;28;20190;-59
2023/04/29 03:40:50;;;;;;;5.17;3.33;;;11.40;99.90;;;;;;5034702;28;20223;-56
2023/04/29 03:43:16;;;;;;;4.60;3.27;;;11.40;99.90;;;;;;5037208;28;20441;-57
2023/04/29 03:45:42;;;;;;;4.70;3.40;;;11.30;99.90;;;;;;5037299;28;20477;-57
2023/04/29 03:48:08;;;;;;;7.43;4.03;;;11.30;99.90;;;;;;5039184;28;20434;-57
2023/04/29 03:50:35;;;;;;;4.90;3.77;;;11.30;99.90;;;;;;5040935;28;20183;-57
2023/04/29 03:53:01;;;;;;;7.63;3.70;;;11.30;99.90;;;;;;5044166;28;20564;-56
2023/04/29 03:55:27;;;;;;;5.87;2.90;;;11.30;99.90;;;;;;5093529;23;20991;-55
2023/04/29 03:57:52;;;;;;;8.50;3.00;;;11.30;99.90;;;;;;5063804;28;20231;-55
2023/04/29 04:00:18;;;;;;;6.80;2.87;;;11.20;99.90;;;;;;5067214;28;20699;-56
2023/04/29 04:02:43;;;;;;;8.13;3.57;;;11.20;99.90;;;;;;5061400;28;20182;-55
2023/04/29 04:05:09;;;;;;;14.57;3.70;;;11.20;99.90;;;;;;5061741;28;20190;-56
2023/04/29 04:07:35;;;;;;;15.10;3.23;;;11.20;99.90;;;;;;5064985;28;20197;-57
2023/04/29 04:10:01;;;;;;;2.83;2.53;;;11.20;99.90;;;;;;5062689;28;20253;-57
2023/04/29 04:12:26;;;;;;;6.50;3.67;;;11.20;99.90;;;;;;5056283;28;20262;-57
2023/04/29 04:14:54;;;;;;;6.30;3.37;;;11.10;99.90;;;;;;5063996;28;20585;-59
2023/04/29 04:17:19;;;;;;;5.43;3.50;;;11.10;99.90;;;;;;5061281;28;20175;-56
2023/04/29 04:19:45;;;;;;;20.10;3.60;;;11.10;99.90;;;;;;5062453;28;20848;-55
2023/04/29 04:22:10;;;;;;;19.57;3.03;;;11.10;99.90;;;;;;5066348;28;20257;-57
2023/04/29 04:24:36;;;;;;;6.53;2.67;;;11.10;99.90;;;;;;5061049;28;20551;-56
2023/04/29 04:27:02;;;;;;;2.83;2.60;;;11.10;99.90;;;;;;5061039;28;20219;-55
2023/04/29 04:29:27;;;;;;;9.07;2.80;;;11.00;99.90;;;;;;5065157;28;20226;-56
2023/04/29 04:31:53;;;;;;;3.80;3.17;;;11.10;99.90;;;;;;5065272;28;20175;-58
2023/04/29 04:34:19;;;;;;;3.37;2.97;;;11.00;99.90;;;;;;5064596;28;20745;-57
2023/04/29 04:36:45;;;;;;;4.40;2.80;;;11.10;99.90;;;;;;5062419;28;20174;-57
2023/04/29 04:39:10;;;;;;;5.73;2.70;;;11.00;99.90;;;;;;5062625;28;20248;-56
2023/04/29 04:41:37;;;;;;;7.20;2.57;;;11.00;99.90;;;;;;5062017;28;20432;-56
2023/04/29 04:44:03;;;;;;;16.80;3.07;;;11.00;99.90;;;;;;5062486;28;20195;-57
2023/04/29 04:46:28;;;;;;;9.63;3.07;;;11.00;99.90;;;;;;5067962;28;20435;-57
2023/04/29 04:48:54;;;;;;;2.67;2.47;;;11.00;99.90;;;;;;5062562;28;20265;-57
2023/04/29 04:51:20;;;;;;;3.93;2.70;;;11.00;99.90;;;;;;5056977;28;20648;-58
2023/04/29 04:53:45;;;;;;;9.10;2.60;;;11.00;99.90;;;;;;5060900;28;20270;-55
2023/04/29 04:56:11;;;;;;;5.17;2.53;;;11.00;99.90;;;;;;5055582;28;20174;-56
2023/04/29 04:58:36;;;;;;;23.77;4.27;;;11.00;99.90;;;;;;5059060;28;20265;-56
2023/04/29 05:01:02;;;;;;;14.90;3.83;;;10.90;99.90;;;;;;5066613;28;20181;-56
2023/04/29 05:03:28;;;;;;;10.13;3.77;;;10.90;99.90;;;;;;5064107;28;20537;-55
2023/04/29 05:05:57;;;;;;;42.90;4.37;;;10.90;99.90;;;;;;5063070;28;20615;-55
2023/04/29 05:08:24;;;;;;;56.40;4.33;;;10.90;99.90;;;;;;5063662;28;20525;-56
2023/04/29 05:10:50;;;;;;;115.43;7.40;;;10.90;99.90;;;;;;5058623;28;20463;-58
2023/04/29 05:13:16;;;;;;;26.27;3.00;;;10.90;99.90;;;;;;5062212;28;20483;-59
2023/04/29 05:15:42;;;;;;;7.50;3.37;;;10.90;99.90;;;;;;5061489;28;20976;-56
2023/04/29 05:18:07;;;;;;;58.30;4.50;;;10.90;99.90;;;;;;5061118;28;20179;-56
2023/04/29 05:20:33;;;;;;;45.50;5.23;;;10.90;99.90;;;;;;5059528;28;20792;-56
2023/04/29 05:22:59;;;;;;;6.43;3.07;;;10.90;99.90;;;;;;5059927;28;20181;-55
2023/04/29 05:25:24;;;;;;;34.03;3.80;;;10.90;99.90;;;;;;5062054;28;20823;-56
2023/04/29 05:27:50;;;;;;;20.60;4.43;;;10.90;99.90;;;;;;5057760;28;20203;-55
2023/04/29 05:30:17;;;;;;;12.67;4.00;;;10.90;99.90;;;;;;5058895;28;20260;-55
2023/04/29 05:32:44;;;;;;;37.50;5.90;;;11.00;99.90;;;;;;5058628;28;20429;-57
2023/04/29 05:35:10;;;;;;;86.10;6.93;;;11.00;99.90;;;;;;5054732;28;20452;-57
2023/04/29 05:37:36;;;;;;;25.27;4.43;;;11.00;99.90;;;;;;5061219;28;20464;-58
2023/04/29 05:40:02;;;;;;;54.33;5.73;;;11.00;99.90;;;;;;5062551;28;20488;-57
2023/04/29 05:42:27;;;;;;;3.90;3.33;;;11.00;99.90;;;;;;5055311;28;20185;-59
2023/04/29 05:44:53;;;;;;;22.90;3.97;;;11.00;99.90;;;;;;5061225;28;20202;-56
2023/04/29 05:47:19;;;;;;;11.00;4.23;;;11.00;99.90;;;;;;5059079;28;20628;-58
2023/04/29 05:49:44;;;;;;;9.33;3.60;;;11.10;99.90;;;;;;5050964;28;20186;-58
2023/04/29 05:52:10;;;;;;;8.40;4.73;;;11.20;99.90;;;;;;5062069;28;20552;-57
2023/04/29 05:54:36;;;;;;;3.90;3.40;;;11.20;99.90;;;;;;5058486;28;20263;-57
2023/04/29 05:57:02;;;;;;;4.03;3.60;;;11.30;99.90;;;;;;5065742;28;20424;-57
2023/04/29 05:59:30;;;;;;;5.20;3.50;;;11.30;99.90;;;;;;5060339;28;20632;-56
2023/04/29 06:01:56;;;;;;;4.23;3.30;;;11.40;99.90;;;;;;5059314;28;20445;-54
2023/04/29 06:04:21;;;;;;;54.77;5.50;;;11.50;99.90;;;;;;5057601;28;20452;-55
2023/04/29 06:06:47;;;;;;;75.60;6.03;;;11.50;99.90;;;;;;5063877;28;20440;-57
2023/04/29 06:09:17;;;;;;;16.57;4.33;;;11.60;99.90;;;;;;5065808;28;20175;-57
2023/04/29 06:11:43;;;;;;;21.87;4.67;;;11.50;99.90;;;;;;5061700;28;20503;-56
2023/04/29 06:14:09;;;;;;;21.20;6.10;;;11.50;99.90;;;;;;5064130;28;20551;-57
2023/04/29 06:16:35;;;;;;;24.23;4.57;;;11.50;99.90;;;;;;5057560;28;20895;-56
2023/04/29 06:19:01;;;;;;;4.27;3.30;;;11.50;99.90;;;;;;5057180;28;20551;-59
2023/04/29 06:21:27;;;;;;;10.10;4.00;;;11.50;99.90;;;;;;5051940;28;20182;-56
2023/04/29 06:23:53;;;;;;;11.67;3.77;;;11.60;99.90;;;;;;5050582;28;21962;-58
2023/04/29 06:26:19;;;;;;;17.60;3.90;;;11.60;99.90;;;;;;5054691;28;20718;-58
2023/04/29 06:28:46;;;;;;;5.83;4.83;;;11.70;99.90;;;;;;5057774;28;20523;-59
2023/04/29 06:31:12;;;;;;;17.60;4.63;;;11.80;99.90;;;;;;5060861;28;20945;-58
2023/04/29 06:33:37;;;;;;;34.57;5.83;;;11.90;99.90;;;;;;5056904;28;20517;-59
2023/04/29 06:36:03;;;;;;;10.83;6.43;;;11.90;99.90;;;;;;5050994;28;20183;-58
2023/04/29 06:38:29;;;;;;;23.90;5.70;;;12.00;99.90;;;;;;5049025;28;24005;-63
2023/04/29 06:40:59;;;;;;;23.87;5.80;;;12.10;99.90;;;;;;5051847;28;20549;-60
2023/04/29 06:43:28;;;;;;;17.03;5.80;;;12.10;99.90;;;;;;5052363;28;20182;-58
2023/04/29 06:45:53;;;;;;;17.23;5.83;;;12.20;99.90;;;;;;5054296;28;20495;-58
2023/04/29 06:48:19;;;;;;;22.33;5.60;;;12.20;99.90;;;;;;5050384;28;20551;-58
2023/04/29 06:50:51;;;;;;;8.73;5.53;;;12.20;99.90;;;;;;5052580;28;20189;-59
2023/04/29 06:53:18;;;;;;;6.80;5.20;;;12.10;99.90;;;;;;5057633;28;20209;-60
2023/04/29 06:55:45;;;;;;;4.87;3.93;;;12.20;99.90;;;;;;5058974;28;20480;-57
2023/04/29 06:58:15;;;;;;;9.77;5.80;;;12.20;99.90;;;;;;5053357;28;20533;-57
2023/04/29 07:00:44;;;;;;;14.47;7.77;;;12.30;99.90;;;;;;5052279;28;20460;-59
2023/04/29 07:03:10;;;;;;;28.43;11.70;;;12.50;99.90;;;;;;5051090;28;20518;-57
2023/04/29 07:05:39;;;;;;;21.50;11.27;;;12.70;99.90;;;;;;5048662;28;20444;-58
2023/04/29 07:08:05;;;;;;;21.50;10.80;;;12.90;99.90;;;;;;5052099;28;20796;-58
2023/04/29 07:10:31;;;;;;;21.53;11.10;;;13.00;99.90;;;;;;5052579;28;20441;-57
2023/04/29 07:12:56;;;;;;;18.63;10.37;;;13.10;99.90;;;;;;5056902;28;20220;-59
2023/04/29 07:15:22;;;;;;;20.50;11.60;;;13.10;99.90;;;;;;5053479;28;20206;-57
2023/04/29 07:17:47;;;;;;;18.93;10.37;;;13.20;99.90;;;;;;5051823;28;20175;-57
2023/04/29 07:20:13;;;;;;;23.60;11.43;;;13.30;99.90;;;;;;5053667;28;20252;-57
2023/04/29 07:22:39;;;;;;;19.80;9.20;;;13.40;99.90;;;;;;5048617;28;20817;-53
2023/04/29 07:25:05;;;;;;;12.67;8.63;;;13.50;99.90;;;;;;5051578;28;20201;-54
2023/04/29 07:27:33;;;;;;;17.00;8.43;;;13.60;99.90;;;;;;5055928;28;20399;-57
2023/04/29 07:30:02;;;;;;;12.20;7.03;;;13.70;99.90;;;;;;5055440;28;20178;-56
2023/04/29 07:32:30;;;;;;;14.10;7.27;;;13.80;99.90;;;;;;5053761;28;21228;-60
2023/04/29 07:34:56;;;;;;;14.87;8.40;;;14.00;99.90;;;;;;5054084;28;20463;-60
2023/04/29 07:37:22;;;;;;;13.20;7.13;;;14.20;99.90;;;;;;5057176;28;20513;-58
2023/04/29 07:39:47;;;;;;;14.70;6.37;;;14.30;99.90;;;;;;5056542;28;20459;-59
2023/04/29 07:42:13;;;;;;;6.07;4.47;;;14.40;99.90;;;;;;5058077;28;20183;-55
2023/04/29 07:44:39;;;;;;;7.70;5.33;;;14.60;99.90;;;;;;5057541;28;20222;-58
2023/04/29 07:47:05;;;;;;;6.90;4.60;;;14.70;99.90;;;;;;5057491;28;20174;-57
2023/04/29 07:49:30;;;;;;;9.90;5.20;;;14.80;99.90;;;;;;5059569;28;20596;-58
2023/04/29 07:51:56;;;;;;;6.93;4.60;;;14.90;99.90;;;;;;5053531;28;20444;-58
2023/04/29 07:54:22;;;;;;;4.47;4.07;;;15.00;99.90;;;;;;5060465;28;20244;-57
2023/04/29 07:56:48;;;;;;;8.07;4.37;;;15.10;99.90;;;;;;5063251;28;20183;-58
2023/04/29 07:59:14;;;;;;;9.47;4.30;;;15.20;99.90;;;;;;5063188;28;20476;-58
2023/04/29 08:01:41;;;;;;;5.90;3.50;;;15.20;99.90;;;;;;5060895;28;20944;-59
2023/04/29 08:04:06;;;;;;;5.33;2.87;;;15.40;99.90;;;;;;5063738;28;20194;-59
2023/04/29 08:06:33;;;;;;;4.17;2.40;;;15.50;99.90;;;;;;5061602;28;20425;-59
2023/04/29 08:08:58;;;;;;;3.07;2.30;;;15.50;99.90;;;;;;5062036;28;20663;-56
2023/04/29 08:11:25;;;;;;;2.80;2.60;;;15.50;99.90;;;;;;5061671;28;20432;-59
2023/04/29 08:13:51;;;;;;;2.03;1.93;;;15.50;99.90;;;;;;5063013;28;20231;-57
2023/04/29 08:16:17;;;;;;;4.83;2.93;;;15.70;99.90;;;;;;5053309;28;20433;-57
2023/04/29 08:18:43;;;;;;;6.37;2.70;;;15.80;99.90;;;;;;5054820;28;20431;-57
2023/04/29 08:21:10;;;;;;;2.60;2.40;;;15.90;99.90;;;;;;5059133;28;20202;-57
2023/04/29 08:23:37;;;;;;;1.90;1.80;;;15.90;99.90;;;;;;5063618;28;20182;-58
2023/04/29 08:26:02;;;;;;;6.40;1.87;;;15.90;99.90;;;;;;5060514;28;20426;-58
2023/04/29 08:28:28;;;;;;;3.10;2.07;;;16.00;99.90;;;;;;5061155;28;20940;-58
2023/04/29 08:30:54;;;;;;;4.83;1.73;;;16.00;99.90;;;;;;5065762;28;20209;-58
2023/04/29 08:33:21;;;;;;;2.60;2.23;;;16.00;99.90;;;;;;5056972;28;20198;-58
2023/04/29 08:35:46;;;;;;;3.20;2.00;;;16.00;99.90;;;;;;5059363;28;21169;-58
2023/04/29 08:38:12;;;;;;;4.93;1.93;;;16.10;99.90;;;;;;5065363;28;20531;-57
2023/04/29 08:40:42;;;;;;;2.07;1.97;;;16.20;99.90;;;;;;5061337;28;20709;-57
2023/04/29 08:43:09;;;;;;;3.63;2.13;;;16.20;99.90;;;;;;5067827;28;20179;-56
2023/04/29 08:45:35;;;;;;;2.73;2.10;;;16.10;99.90;;;;;;5066842;28;20537;-59
2023/04/29 08:48:05;;;;;;;2.10;1.60;;;16.20;99.90;;;;;;5055348;28;20478;-58
2023/04/29 08:50:36;;;;;;;2.27;1.80;;;16.30;99.90;;;;;;5056292;28;20436;-58
2023/04/29 08:53:02;;;;;;;3.73;1.90;;;16.30;99.90;;;;;;5053204;28;20430;-58
2023/04/29 08:55:28;;;;;;;3.07;2.10;;;16.30;99.90;;;;;;5062746;28;20506;-58
2023/04/29 08:57:55;;;;;;;1.93;1.83;;;16.30;99.90;;;;;;5057253;28;20179;-60
2023/04/29 09:00:23;;;;;;;2.17;2.00;;;16.40;99.90;;;;;;5056059;28;20204;-59
2023/04/29 09:02:52;;;;;;;4.20;2.47;;;16.40;99.90;;;;;;5057318;28;20468;-56
2023/04/29 09:05:18;;;;;;;6.40;3.17;;;16.50;99.90;;;;;;5061752;28;20853;-59
2023/04/29 09:07:45;;;;;;;2.10;1.90;;;16.60;99.90;;;;;;5058234;28;20480;-60
2023/04/29 09:10:11;;;;;;;3.53;1.80;;;16.70;99.90;;;;;;5060918;28;20936;-58
2023/04/29 09:12:37;;;;;;;5.83;2.03;;;16.80;99.90;;;;;;5060301;28;20455;-59
2023/04/29 09:15:03;;;;;;;2.77;1.70;;;17.00;99.90;;;;;;5058118;28;20956;-58
2023/04/29 09:17:43;;;;;;;2.63;1.90;;;17.20;99.90;;;;;;5060985;28;20244;-60
2023/04/29 09:20:25;;;;;;;2.23;2.00;;;17.50;99.90;;;;;;5061663;28;20565;-59
2023/04/29 09:23:00;;;;;;;1.50;1.40;;;17.60;99.90;;;;;;5062988;28;20448;-58
2023/04/29 09:25:26;;;;;;;2.10;1.93;;;17.80;99.90;;;;;;5062767;28;20483;-59
2023/04/29 09:27:53;;;;;;;3.00;2.57;;;17.90;99.90;;;;;;5062017;28;20498;-59
2023/04/29 09:30:19;;;;;;;2.10;1.87;;;18.00;99.90;;;;;;5059516;28;20898;-60
2023/04/29 09:33:02;;;;;;;3.03;2.23;;;18.00;99.10;;;;;;5056032;28;20548;-58
2023/04/29 09:35:27;;;;;;;2.10;1.90;;;17.80;99.70;;;;;;5060372;28;20453;-59
2023/04/29 09:38:11;;;;;;;4.60;2.10;;;17.70;99.90;;;;;;5065492;28;20511;-58
2023/04/29 09:40:37;;;;;;;3.53;2.00;;;17.70;99.90;;;;;;5063367;28;20757;-57
2023/04/29 09:43:02;;;;;;;2.27;2.00;;;17.70;99.90;;;;;;5059907;28;20467;-57
2023/04/29 09:45:42;;;;;;;1.50;1.40;;;17.80;99.90;;;;;;5056762;28;20455;-56
2023/04/29 09:48:09;;;;;;;3.20;1.80;;;17.70;99.90;;;;;;5059701;28;20699;-57
2023/04/29 09:50:38;;;;;;;2.90;2.17;;;17.60;99.90;;;;;;5052500;28;20433;-57
2023/04/29 09:53:07;;;;;;;6.07;2.90;;;17.50;99.90;;;;;;5058737;28;20436;-57
2023/04/29 09:55:56;;;;;;;3.87;2.10;;;17.60;99.90;;;;;;5055413;28;20464;-56
2023/04/29 09:58:39;;;;;;;6.10;2.30;;;17.70;99.90;;;;;;5057150;28;20457;-58
2023/04/29 10:01:05;;;;;;;3.03;1.83;;;18.00;99.90;;;;;;5046787;28;20467;-58
2023/04/29 10:03:35;;;;;;;2.63;2.17;;;18.10;99.90;;;;;;5059450;28;20436;-58
2023/04/29 10:06:03;;;;;;;1.87;1.77;;;18.20;99.90;;;;;;5060854;28;20457;-57
2023/04/29 10:08:30;;;;;;;2.00;1.83;;;18.30;99.90;;;;;;5104984;22;20491;-62
2023/04/29 10:11:01;;;;;;;6.67;2.00;;;18.40;99.80;;;;;;5095059;28;20424;-63
2023/04/29 10:13:28;;;;;;;1.80;1.70;;;18.50;95.70;;;;;;5088143;28;20430;-62
2023/04/29 10:16:14;;;;;;;2.57;1.90;;;18.60;97.10;;;;;;5082671;28;20423;-62
2023/04/29 10:18:43;;;;;;;5.93;2.10;;;18.70;96.30;;;;;;5067063;28;20476;-61
2023/04/29 10:21:10;;;;;;;4.17;1.83;;;18.70;96.00;;;;;;5060247;28;20469;-62
2023/04/29 10:23:36;;;;;;;2.00;1.90;;;18.80;95.90;;;;;;5061969;28;20425;-61
2023/04/29 10:26:03;;;;;;;3.17;1.70;;;18.80;95.90;;;;;;5065372;28;20448;-61
2023/04/29 10:28:31;;;;;;;2.80;2.23;;;19.00;93.90;;;;;;5063678;28;20451;-61
2023/04/29 10:31:04;;;;;;;2.70;2.30;;;19.00;90.80;;;;;;5056203;28;20536;-61
2023/04/29 10:33:35;;;;;;;2.80;1.70;;;19.10;91.70;;;;;;5062575;28;20539;-61
2023/04/29 10:36:02;;;;;;;3.00;1.87;;;19.10;92.10;;;;;;5051936;28;20456;-62
2023/04/29 10:38:43;;;;;;;2.00;1.60;;;19.20;91.80;;;;;;5061532;28;20509;-62
2023/04/29 10:41:18;;;;;;;3.23;1.70;;;19.20;90.90;;;;;;5081225;28;20456;-62
2023/04/29 10:43:44;;;;;;;2.30;2.03;;;18.90;89.70;;;;;;5057214;28;20424;-61
2023/04/29 10:46:15;;;;;;;2.97;2.00;;;18.90;91.40;;;;;;5055057;28;20472;-62
2023/04/29 10:48:43;;;;;;;3.67;2.10;;;19.10;92.40;;;;;;5063952;28;20204;-62
2023/04/29 10:51:08;;;;;;;2.17;1.97;;;19.20;87.20;;;;;;5062653;28;20950;-61
2023/04/29 10:53:34;;;;;;;2.30;2.10;;;19.30;86.60;;;;;;5065729;28;20447;-61
2023/04/29 10:56:07;;;;;;;2.70;2.00;;;19.30;88.10;;;;;;5065463;28;20677;-62
2023/04/29 10:58:45;;;;;;;3.80;1.60;;;19.50;84.90;;;;;;5065964;28;20451;-61
2023/04/29 11:01:16;;;;;;;2.23;1.63;;;19.60;82.20;;;;;;5056437;28;20460;-61
2023/04/29 11:03:58;;;;;;;1.90;1.80;;;19.70;71.80;;;;;;5066265;28;20802;-61
2023/04/29 11:06:51;;;;;;;3.27;1.90;;;19.80;71.60;;;;;;5059526;28;21704;-62
2023/04/29 11:09:23;;;;;;;2.70;1.80;;;19.90;73.70;;;;;;5058213;28;20964;-62
2023/04/29 11:11:56;;;;;;;1.70;1.60;;;19.90;72.30;;;;;;5059651;28;20925;-62
2023/04/29 11:14:31;;;;;;;1.73;1.57;;;20.00;73.60;;;;;;5067327;28;20435;-61
2023/04/29 11:16:58;;;;;;;2.60;1.73;;;20.10;71.30;;;;;;5067528;28;20431;-62
2023/04/29 11:19:47;;;;;;;2.07;1.90;;;20.20;69.90;;;;;;5059178;28;20622;-61
2023/04/29 11:22:19;;;;;;;1.73;1.60;;;20.10;70.20;;;;;;5060111;28;20426;-61
2023/04/29 11:24:59;;;;;;;4.53;1.83;;;20.20;72.80;;;;;;5065536;28;20964;-61
2023/04/29 11:27:29;;;;;;;1.90;1.80;;;20.20;70.80;;;;;;5065363;28;20440;-62
2023/04/29 11:29:59;;;;;;;1.83;1.73;;;20.20;67.90;;;;;;5063137;28;20520;-61
2023/04/29 11:32:36;;;;;;;2.77;1.70;;;20.20;67.20;;;;;;5068499;28;20477;-61
2023/04/29 11:35:08;;;;;;;1.80;1.70;;;20.30;69.20;;;;;;5058607;28;20470;-61
2023/04/29 11:37:34;;;;;;;1.80;1.70;;;20.40;66.00;;;;;;5070852;28;20482;-63
2023/04/29 11:40:00;;;;;;;3.20;1.70;;;20.50;65.00;;;;;;5068950;28;20448;-66
2023/04/29 11:42:27;;;;;;;2.07;1.87;;;20.50;63.80;;;;;;5062233;28;20970;-64
2023/04/29 11:44:55;;;;;;;1.70;1.60;;;20.60;63.10;;;;;;5067240;28;20699;-62
2023/04/29 11:47:26;;;;;;;3.83;1.90;;;20.60;62.00;;;;;;5069106;28;20448;-62
2023/04/29 11:49:52;;;;;;;3.23;1.70;;;20.60;61.30;;;;;;5067520;28;20467;-61
2023/04/29 11:52:17;;;;;;;3.17;1.60;;;20.60;61.60;;;;;;5058668;28;20532;-61
2023/04/29 11:54:43;;;;;;;2.37;1.60;;;20.60;62.20;;;;;;5056314;28;20539;-61
2023/04/29 11:57:10;;;;;;;2.97;1.90;;;20.60;62.10;;;;;;5062029;28;20194;-61
2023/04/29 11:59:35;;;;;;;1.87;1.77;;;20.70;61.70;;;;;;5066890;28;20205;-62
2023/04/29 12:02:01;;;;;;;1.83;1.70;;;20.80;61.50;;;;;;5067226;28;20424;-62
2023/04/29 12:04:26;;;;;;;1.70;1.37;;;20.90;61.70;;;;;;5068545;28;20231;-61
2023/04/29 12:06:52;;;;;;;2.43;1.80;;;21.10;61.40;;;;;;5060449;28;20258;-62
2023/04/29 12:09:18;;;;;;;2.83;1.53;;;21.30;59.90;;;;;;5057261;28;20214;-61
2023/04/29 12:11:45;;;;;;;1.63;1.53;;;21.30;57.20;;;;;;5071741;28;20221;-62
2023/04/29 12:14:12;;;;;;;2.53;1.70;;;21.40;58.70;;;;;;5066619;28;21114;-62
2023/04/29 12:16:39;;;;;;;3.03;1.77;;;21.50;57.20;;;;;;5058273;28;20908;-62
2023/04/29 12:19:05;;;;;;;2.20;1.47;;;21.50;56.50;;;;;;5063221;28;20453;-62
2023/04/29 12:21:32;;;;;;;1.83;1.73;;;21.60;57.00;;;;;;5065646;28;20452;-63
2023/04/29 12:24:00;;;;;;;2.90;2.10;;;21.60;55.60;;;;;;5063616;28;20429;-62
2023/04/29 12:26:32;;;;;;;1.70;1.57;;;21.50;56.30;;;;;;5066438;28;20432;-62
2023/04/29 12:28:58;;;;;;;1.77;1.67;;;21.50;56.00;;;;;;5069272;28;20815;-63
2023/04/29 12:31:31;;;;;;;2.80;1.70;;;21.70;56.40;;;;;;5060901;28;20432;-62
2023/04/29 12:33:56;;;;;;;2.53;2.07;;;21.70;54.50;;;;;;5061003;28;20217;-62
2023/04/29 12:36:22;;;;;;;2.13;2.00;;;21.70;54.60;;;;;;5063016;28;20424;-62
2023/04/29 12:38:48;;;;;;;3.30;2.10;;;21.70;55.10;;;;;;5066705;28;20190;-62
2023/04/29 12:41:16;;;;;;;1.60;1.50;;;21.80;54.80;;;;;;5067954;28;20206;-62
2023/04/29 12:43:41;;;;;;;2.03;1.83;;;21.90;55.00;;;;;;5065888;28;20989;-62
2023/04/29 12:46:09;;;;;;;1.80;1.67;;;21.90;55.20;;;;;;5067832;28;20424;-62